< < Back
Terminal Aerodrome Forecast


Current Version              Previous Versions:   1  2  3  4  5  6  7  8  9  

Terminal Aerodrome Forecast

870
FTUS42 KTAE 300600 AAB
TAFDHN
TAF AMD
KDHN 300659Z 3007/3106 02004KT P6SM BKN035
     FM300800 36005KT P6SM SCT035
     FM301400 36010KT P6SM FEW250
     FM310300 33004KT P6SM SKC=

Latest METAR

861
SAUS70 KWBC 310600
MTRDHN
METAR KDHN 310553Z AUTO 33005KT 10SM CLR 09/06 A3001 RMK AO2 SLP160
T00940056 10150 20089 402280089 58005


USA.gov is the U.S. government's official web portal to all federal, state and local government web resources and services.